Time;durP1;ratioP1;P1;durP2;ratioP2;P2;SDS_P1;SDS_P2;PMS_P1;PMS_P2;Temp;Humidity;BMP_temperature;BMP_pressure;BME280_temperature;BME280_humidity;BME280_pressure;Samples;Min_cycle;Max_cycle;Signal;HPM_P1;HPM_P2
2024/04/19 00:01:05;;;;;;;0.40;0.40;;;;;;;5.19;87.41;97645.52;106981;1262;72750;-37
2024/04/19 00:03:33;;;;;;;0.30;0.30;;;;;;;5.15;87.62;97646.84;107261;1257;61092;-37
2024/04/19 00:06:01;;;;;;;2.70;0.40;;;;;;;5.17;87.55;97646.80;107077;1258;61211;-37
2024/04/19 00:08:32;;;;;;;0.60;0.40;;;;;;;5.23;87.57;97644.24;107081;1258;74641;-37
2024/04/19 00:10:59;;;;;;;0.40;0.40;;;;;;;5.24;87.54;97646.25;107305;1259;67959;-37
2024/04/19 00:13:27;;;;;;;0.50;0.40;;;;;;;5.22;87.93;97648.16;107196;1260;73082;-37
2024/04/19 00:15:57;;;;;;;0.70;0.40;;;;;;;5.20;88.24;97647.77;107208;1257;61989;-37
2024/04/19 00:18:27;;;;;;;;;;;;;;;5.24;88.40;97645.17;107210;1258;60078;-37
2024/04/19 00:20:56;;;;;;;0.90;0.50;;;;;;;5.28;88.41;97649.98;107064;1258;74702;-37
2024/04/19 00:23:23;;;;;;;0.60;0.50;;;;;;;5.23;88.86;97644.64;107254;1258;65342;-37
2024/04/19 00:25:51;;;;;;;0.50;0.40;;;;;;;5.19;88.97;97649.26;107228;1258;71731;-37
2024/04/19 00:28:36;;;;;;;1.10;0.80;;;;;;;5.22;89.32;97647.93;107017;1259;61224;-37
2024/04/19 00:31:04;;;;;;;0.80;0.40;;;;;;;5.27;89.52;97653.82;107112;1257;61298;-37
2024/04/19 00:33:31;;;;;;;4.00;0.40;;;;;;;5.26;89.62;97653.95;107036;1258;74716;-37
2024/04/19 00:35:59;;;;;;;1.70;0.50;;;;;;;5.22;90.01;97654.68;107200;1258;67670;-37
2024/04/19 00:38:26;;;;;;;0.40;0.40;;;;;;;5.27;90.18;97653.74;107223;1260;72698;-37
2024/04/19 00:40:54;;;;;;;2.10;0.60;;;;;;;5.35;90.08;97652.83;107133;1262;61264;-37
2024/04/19 00:43:22;;;;;;;0.50;0.50;;;;;;;5.36;90.19;97656.31;107138;1259;61128;-37
2024/04/19 00:45:50;;;;;;;0.40;0.40;;;;;;;5.35;90.40;97659.52;107100;1262;73640;-37
2024/04/19 00:48:19;;;;;;;0.60;0.50;;;;;;;5.38;90.31;97662.40;107024;1257;67642;-37
2024/04/19 00:50:57;;;;;;;0.60;0.60;;;;;;;5.43;90.08;97661.08;107081;1257;72733;-37
2024/04/19 00:53:29;;;;;;;1.60;0.80;;;;;;;5.44;89.98;97667.38;107215;1257;60400;-37
2024/04/19 00:56:19;;;;;;;0.80;0.70;;;;;;;5.41;90.09;97670.19;107043;1262;61198;-37
2024/04/19 00:58:46;;;;;;;1.20;0.80;;;;;;;5.42;90.23;97674.95;107166;1262;74692;-37
2024/04/19 01:01:14;;;;;;;0.80;0.80;;;;;;;5.49;90.26;97674.52;107005;1257;67630;-37
2024/04/19 01:03:42;;;;;;;0.80;0.70;;;;;;;5.51;89.81;97674.52;107184;1263;72760;-38
2024/04/19 01:06:09;;;;;;;1.00;0.70;;;;;;;5.45;89.82;97676.30;107288;1257;61109;-37
2024/04/19 01:08:37;;;;;;;0.80;0.70;;;;;;;5.40;89.87;97674.10;107175;1257;61084;-37
2024/04/19 01:11:04;;;;;;;1.20;0.90;;;;;;;5.51;89.87;97686.59;107094;1257;74662;-37
2024/04/19 01:13:32;;;;;;;0.60;0.60;;;;;;;5.53;89.84;97686.23;107189;1257;66083;-37
2024/04/19 01:15:59;;;;;;;0.60;0.60;;;;;;;5.47;89.76;97682.86;107204;1263;72810;-37
2024/04/19 01:18:49;;;;;;;1.40;0.90;;;;;;;5.49;89.39;97688.17;107196;1260;61678;-37
2024/04/19 01:21:17;;;;;;;1.10;0.80;;;;;;;5.52;89.41;97690.98;107240;1259;61109;-37
2024/04/19 01:23:45;;;;;;;1.80;0.70;;;;;;;5.57;89.17;97694.48;107073;1257;74641;-37
2024/04/19 01:26:13;;;;;;;0.70;0.70;;;;;;;5.56;89.27;97695.01;107098;1257;67612;-38
2024/04/19 01:28:40;;;;;;;0.80;0.80;;;;;;;5.51;89.48;97688.73;107115;1262;73162;-37
2024/04/19 01:31:07;;;;;;;0.50;0.50;;;;;;;5.51;89.37;97694.20;107202;1257;61705;-37
2024/04/19 01:33:35;;;;;;;2.00;0.80;;;;;;;5.54;89.43;97695.45;107253;1261;61164;-37
2024/04/19 01:36:04;;;;;;;1.70;0.80;;;;;;;5.51;89.64;97696.48;107260;1257;73404;-37
2024/04/19 01:38:46;;;;;;;0.90;0.70;;;;;;;5.46;90.25;97698.81;107252;1257;66840;-37
2024/04/19 01:41:14;;;;;;;0.90;0.80;;;;;;;5.49;90.57;97699.77;107211;1257;71189;-37
2024/04/19 01:43:42;;;;;;;0.80;0.80;;;;;;;5.52;90.73;97697.04;107210;1260;61285;-37
2024/04/19 01:46:10;;;;;;;1.80;1.00;;;;;;;5.52;91.13;97697.80;107295;1261;61338;-37
2024/04/19 01:48:37;;;;;;;1.00;0.90;;;;;;;5.49;91.54;97697.22;107222;1257;73391;-37
2024/04/19 01:51:05;;;;;;;1.90;1.00;;;;;;;5.53;91.66;97702.51;107269;1263;67687;-37
2024/04/19 01:53:32;;;;;;;1.50;1.00;;;;;;;5.59;91.74;97699.35;107086;1257;72801;-37
2024/04/19 01:56:00;;;;;;;2.10;1.40;;;;;;;5.62;91.56;97704.14;107174;1257;61132;-37
2024/04/19 01:58:39;;;;;;;1.50;1.30;;;;;;;5.58;91.31;97707.79;107248;1262;61295;-37
2024/04/19 02:01:07;;;;;;;2.50;1.10;;;;;;;5.59;91.29;97709.48;107254;1261;74690;-37
2024/04/19 02:03:34;;;;;;;1.60;1.40;;;;;;;5.64;91.10;97709.86;107277;1263;67635;-37
2024/04/19 02:06:13;;;;;;;1.80;1.20;;;;;;;5.70;90.79;97710.93;107299;1260;72721;-37
2024/04/19 02:08:41;;;;;;;1.70;1.40;;;;;;;5.69;90.70;97713.98;107335;1257;61301;-37
2024/04/19 02:11:08;;;;;;;2.40;1.10;;;;;;;5.69;90.43;97718.22;107285;1262;61159;-37
2024/04/19 02:13:36;;;;;;;2.30;1.40;;;;;;;5.74;90.42;97723.72;107713;1257;74694;-37
2024/04/19 02:16:04;;;;;;;1.40;1.30;;;;;;;5.80;90.30;97723.56;107602;1256;66375;-37
2024/04/19 02:18:32;;;;;;;2.20;1.50;;;;;;;5.79;90.43;97723.92;107642;1255;72669;-37
2024/04/19 02:20:59;;;;;;;1.60;1.40;;;;;;;5.77;90.94;97727.12;107607;1255;61699;-37
2024/04/19 02:23:36;;;;;;;2.50;1.50;;;;;;;5.80;90.90;97724.86;107607;1254;61260;-37
2024/04/19 02:26:04;;;;;;;4.10;1.60;;;;;;;5.85;90.74;97724.91;107618;1255;74631;-37
2024/04/19 02:31:19;;;;;;;1.70;1.60;;;;;;;5.80;91.35;97730.41;106828;1257;1003514;-37
2024/04/19 02:33:46;;;;;;;2.80;1.70;;;;;;;5.83;91.37;97731.73;107682;1253;61747;-37
2024/04/19 02:36:14;;;;;;;2.70;1.80;;;;;;;5.85;91.42;97737.90;107586;1254;61136;-37
2024/04/19 02:38:42;;;;;;;1.90;1.70;;;;;;;5.87;91.38;97741.71;107589;1254;75225;-37
2024/04/19 02:41:09;;;;;;;2.70;2.00;;;;;;;5.85;91.78;97742.83;107602;1254;66304;-37
2024/04/19 02:43:37;;;;;;;2.50;1.80;;;;;;;5.82;92.07;97740.40;107574;1257;72710;-37
2024/04/19 02:46:05;;;;;;;2.60;2.10;;;;;;;5.86;92.04;97745.00;107571;1254;61702;-37
2024/04/19 02:48:33;;;;;;;3.60;2.30;;;;;;;5.90;92.09;97744.97;107721;1254;60434;-38
2024/04/19 02:51:04;;;;;;;4.20;2.80;;;;;;;5.88;92.15;97747.80;107619;1254;74644;-37
2024/04/19 02:53:32;;;;;;;2.80;2.50;;;;;;;5.85;92.36;97756.59;107550;1257;66420;-37
2024/04/19 02:56:01;;;;;;;3.00;2.50;;;;;;;5.88;92.13;97758.02;107539;1257;71275;-38
2024/04/19 02:58:29;;;;;;;4.40;3.00;;;;;;;5.93;91.79;97767.91;107510;1257;60394;-37
2024/04/19 03:00:56;;;;;;;4.00;2.80;;;;;;;5.93;91.63;97767.76;107553;1253;60074;-37
2024/04/19 03:03:24;;;;;;;3.90;3.10;;;;;;;5.91;91.55;97771.27;107574;1255;74686;-37
2024/04/19 03:05:54;;;;;;;5.00;2.60;;;;;;;5.94;91.62;97776.99;107580;1256;67581;-37
2024/04/19 03:08:22;;;;;;;3.80;2.80;;;;;;;5.99;91.28;97774.91;107663;1254;71707;-37
2024/04/19 03:10:49;;;;;;;5.90;3.40;;;;;;;5.99;90.94;97773.52;107573;1253;61215;-37
2024/04/19 03:13:17;;;;;;;4.00;3.20;;;;;;;5.95;90.66;97779.85;107699;1256;61123;-37
2024/04/19 03:15:45;;;;;;;5.80;3.40;;;;;;;5.97;90.43;97783.55;107665;1253;74689;-37
2024/04/19 03:18:32;;;;;;;5.40;3.50;;;;;;;6.00;90.27;97784.59;107600;1254;66771;-37
2024/04/19 03:21:00;;;;;;;5.40;3.90;;;;;;;5.97;90.52;97788.64;107606;1255;72686;-38
2024/04/19 03:23:28;;;;;;;4.40;3.30;;;;;;;5.95;90.73;97794.30;105412;1254;1003686;-39
2024/04/19 03:25:59;;;;;;;5.20;3.50;;;;;;;5.98;90.72;97800.19;107641;1254;61230;-38
2024/04/19 03:28:26;;;;;;;5.80;3.80;;;;;;;6.01;90.39;97798.35;107595;1254;73449;-38
2024/04/19 03:30:54;;;;;;;6.90;3.50;;;;;;;5.99;90.54;97802.88;107568;1257;67589;-38
2024/04/19 03:33:22;;;;;;;5.40;3.50;;;;;;;5.96;90.83;97807.91;107697;1253;70814;-38
2024/04/19 03:35:49;;;;;;;6.30;3.40;;;;;;;5.99;90.22;97811.02;107583;1256;61180;-38
2024/04/19 03:38:18;;;;;;;7.90;4.60;;;;;;;6.03;90.07;97818.98;107636;1254;60565;-38
2024/04/19 03:40:55;;;;;;;3.90;3.30;;;;;;;6.04;89.42;97818.39;107692;1256;74663;-38
2024/04/19 03:43:32;;;;;;;5.40;3.90;;;;;;;6.03;89.69;97825.45;107560;1257;67584;-38
2024/04/19 03:46:00;;;;;;;5.20;3.80;;;;;;;6.02;89.38;97829.34;107569;1254;72678;-36
2024/04/19 03:48:27;;;;;;;5.10;3.40;;;;;;;6.06;89.01;97835.02;107630;1253;61763;-38
2024/04/19 03:50:55;;;;;;;4.00;3.20;;;;;;;6.08;88.73;97841.96;107468;1257;61186;-38
2024/04/19 03:53:23;;;;;;;4.50;3.80;;;;;;;6.07;88.92;97843.85;107521;1254;74698;-38
2024/04/19 03:55:50;;;;;;;3.90;3.00;;;;;;;6.07;89.11;97845.16;107497;1256;67571;-38
2024/04/19 03:58:18;;;;;;;4.50;3.30;;;;;;;6.15;88.70;97846.34;107591;1252;72922;-38
2024/04/19 04:00:45;;;;;;;4.00;3.60;;;;;;;6.19;88.52;97854.61;107528;1254;61387;-38
2024/04/19 04:03:13;;;;;;;6.10;3.80;;;;;;;6.17;88.25;97855.36;107607;1253;61077;-38
2024/04/19 04:05:40;;;;;;;4.90;3.90;;;;;;;6.15;88.25;97857.64;107598;1254;74690;-38
2024/04/19 04:08:08;;;;;;;5.20;3.60;;;;;;;6.22;88.03;97865.41;107562;1254;66795;-38
2024/04/19 04:10:36;;;;;;;4.20;3.40;;;;;;;6.28;87.58;97865.80;107592;1254;72757;-37
2024/04/19 04:13:03;;;;;;;6.00;3.80;;;;;;;6.29;87.75;97868.88;107705;1253;61016;-37
2024/04/19 04:15:31;;;;;;;4.40;3.20;;;;;;;6.28;87.83;97872.80;107719;1254;61204;-37
2024/04/19 04:18:01;;;;;;;3.70;3.10;;;;;;;6.33;87.90;97878.14;107645;1256;73373;-37
2024/04/19 04:20:29;;;;;;;5.20;3.60;;;;;;;6.37;87.34;97879.05;107631;1257;67613;-37
2024/04/19 04:22:59;;;;;;;3.80;3.20;;;;;;;6.37;87.46;97880.59;107550;1257;72735;-37
2024/04/19 04:25:26;;;;;;;4.50;3.80;;;;;;;6.34;87.07;97882.39;107562;1257;61260;-37
2024/04/19 04:27:54;;;;;;;5.40;3.50;;;;;;;6.35;87.00;97888.31;107589;1254;61127;-37
2024/04/19 04:30:21;;;;;;;6.00;3.50;;;;;;;6.38;87.22;97894.91;107574;1254;74706;-37
2024/04/19 04:32:49;;;;;;;5.10;3.90;;;;;;;6.38;87.19;97897.90;107674;1254;67907;-37
2024/04/19 04:35:16;;;;;;;4.20;3.70;;;;;;;6.36;87.25;97905.09;107603;1254;72681;-37
2024/04/19 04:37:46;;;;;;;4.20;3.70;;;;;;;6.34;87.02;97906.84;107602;1254;61741;-37
2024/04/19 04:40:13;;;;;;;5.20;3.50;;;;;;;6.38;86.85;97906.20;107651;1254;61320;-37
2024/04/19 04:42:41;;;;;;;5.10;3.90;;;;;;;6.37;86.83;97908.58;107599;1257;74818;-37
2024/04/19 04:45:08;;;;;;;6.80;4.30;;;;;;;6.33;86.84;97910.91;107595;1253;67897;-37
2024/04/19 04:47:35;;;;;;;5.20;3.60;;;;;;;6.36;86.83;97914.55;107508;1256;72747;-37
2024/04/19 04:50:04;;;;;;;5.20;3.60;;;;;;;6.42;86.30;97926.02;107510;1257;61169;-37
2024/04/19 04:52:31;;;;;;;5.00;4.10;;;;;;;6.42;86.15;97926.10;107589;1254;60528;-37
2024/04/19 04:54:58;;;;;;;5.10;3.50;;;;;;;6.41;86.24;97930.70;107437;1254;73357;-37
2024/04/19 04:57:26;;;;;;;4.90;3.10;;;;;;;6.46;86.12;97933.46;107605;1256;67715;-37
2024/04/19 04:59:53;;;;;;;9.40;3.40;;;;;;;6.54;85.44;97939.47;107514;1254;72959;-37
2024/04/19 05:02:21;;;;;;;4.80;3.60;;;;;;;6.55;85.47;97947.62;107551;1256;61233;-37
2024/04/19 05:04:49;;;;;;;4.70;2.90;;;;;;;6.53;85.20;97950.67;107432;1254;61333;-37
2024/04/19 05:07:17;;;;;;;2.60;2.40;;;;;;;6.57;84.79;97956.65;107507;1254;73525;-37
2024/04/19 05:09:45;;;;;;;4.30;3.10;;;;;;;6.57;84.71;97958.05;107680;1254;66563;-37
2024/04/19 05:12:12;;;;;;;4.80;2.90;;;;;;;6.60;83.99;97971.30;107617;1254;71859;-37
2024/04/19 05:14:40;;;;;;;3.90;3.20;;;;;;;6.58;83.86;97978.21;107665;1253;61227;-37
2024/04/19 05:17:07;;;;;;;4.30;3.00;;;;;;;6.60;83.40;97985.00;107489;1257;61314;-37
2024/04/19 05:19:35;;;;;;;4.00;3.30;;;;;;;6.61;83.11;97979.16;107698;1254;74749;-38
2024/04/19 05:22:02;;;;;;;5.30;3.30;;;;;;;6.66;82.92;97991.53;107565;1257;66406;-36
2024/04/19 05:24:30;;;;;;;5.10;2.90;;;;;;;6.65;82.34;97988.44;107606;1253;71849;-36
2024/04/19 05:26:57;;;;;;;3.30;3.00;;;;;;;6.68;82.34;98002.55;107578;1255;61669;-36
2024/04/19 05:29:25;;;;;;;4.20;3.10;;;;;;;6.74;82.27;97998.09;107597;1254;61135;-36
2024/04/19 05:31:53;;;;;;;4.20;3.10;;;;;;;6.75;82.64;98002.73;107576;1254;74591;-36
2024/04/19 05:34:21;;;;;;;6.60;3.40;;;;;;;6.76;82.53;98008.59;107652;1254;67612;-36
2024/04/19 05:36:48;;;;;;;5.00;2.80;;;;;;;6.81;82.19;98012.73;107497;1254;73091;-36
2024/04/19 05:39:16;;;;;;;5.70;3.30;;;;;;;6.89;82.34;98014.35;107626;1254;61201;-36
2024/04/19 05:41:44;;;;;;;4.40;3.00;;;;;;;6.92;81.64;98027.86;107499;1253;60886;-37
2024/04/19 05:44:18;;;;;;;4.00;3.20;;;;;;;6.92;81.40;98023.33;107702;1254;76399;-36
2024/04/19 05:46:46;;;;;;;5.00;2.80;;;;;;;6.97;81.99;98031.63;107744;1254;68958;-36
2024/04/19 05:49:14;;;;;;;6.60;3.10;;;;;;;7.03;81.44;98035.61;107584;1253;71453;-37
2024/04/19 05:51:41;;;;;;;5.50;3.30;;;;;;;7.01;80.11;98043.98;107539;1254;60193;-37
2024/04/19 05:54:09;;;;;;;5.40;3.40;;;;;;;6.94;80.11;98046.91;107470;1254;61114;-37
2024/04/19 05:56:37;;;;;;;5.90;3.60;;;;;;;6.90;80.28;98057.63;106779;1254;1002986;-37
2024/04/19 05:59:04;;;;;;;6.40;3.10;;;;;;;6.92;80.02;98064.04;107509;1254;67908;-37
2024/04/19 06:01:32;;;;;;;5.60;3.30;;;;;;;6.88;79.56;98061.77;107586;1257;72936;-37
2024/04/19 06:03:59;;;;;;;5.20;3.20;;;;;;;6.81;79.72;98074.21;107573;1253;59988;-37
2024/04/19 06:06:27;;;;;;;4.50;3.10;;;;;;;6.71;80.05;98069.46;107584;1254;61269;-37
2024/04/19 06:08:54;;;;;;;6.00;3.30;;;;;;;6.77;79.72;98078.85;107498;1253;72909;-39
2024/04/19 06:11:22;;;;;;;3.90;3.20;;;;;;;6.78;79.68;98081.86;107521;1254;150946;-37
2024/04/19 06:15:54;;;;;;;7.70;3.80;;;;;;;6.69;79.60;98089.21;103990;1291;600930;-37
2024/04/19 06:18:22;;;;;;;5.90;3.40;;;;;;;6.66;79.98;98086.95;106617;1266;62507;-37
2024/04/19 06:20:50;;;;;;;5.60;3.30;;;;;;;6.71;80.30;98094.55;106725;1270;60044;-37
2024/04/19 06:23:16;;;;;;;4.30;3.40;;;;;;;6.71;79.86;98092.71;106726;1266;72882;-37
2024/04/19 06:25:43;;;;;;;6.50;3.80;;;;;;;6.70;79.82;98101.69;106766;1266;68050;-37
2024/04/19 06:28:10;;;;;;;3.80;3.20;;;;;;;6.67;79.65;98099.58;106589;1263;193832;-38
2024/04/19 06:30:37;;;;;;;5.80;3.40;;;;;;;6.71;80.06;98108.16;106871;1263;61278;-37
2024/04/19 06:33:04;;;;;;;4.10;3.50;;;;;;;6.73;80.32;98110.81;106828;1263;60251;-37
2024/04/19 06:35:33;;;;;;;5.10;4.00;;;;;;;6.70;80.66;98121.33;106859;1263;71877;-37
2024/04/19 06:38:00;;;;;;;4.10;3.30;;;;;;;6.68;80.58;98122.60;106854;1262;66547;-36
2024/04/19 06:40:27;;;;;;;7.60;3.50;;;;;;;6.73;80.42;98126.36;106847;1263;72689;-37
2024/04/19 06:42:54;;;;;;;6.60;3.10;;;;;;;6.78;80.09;98131.42;106877;1267;60559;-37
2024/04/19 06:45:21;;;;;;;5.50;3.50;;;;;;;6.78;80.07;98134.58;106833;1263;60408;-38
2024/04/19 06:47:48;;;;;;;6.20;3.60;;;;;;;6.77;80.01;98134.59;106681;1262;73784;-36
2024/04/19 06:50:15;;;;;;;3.40;2.90;;;;;;;6.77;79.21;98135.34;106711;1263;67989;-36
2024/04/19 06:52:42;;;;;;;7.80;3.60;;;;;;;6.84;79.41;98140.75;106837;1263;71628;-37
2024/04/19 06:55:10;;;;;;;4.10;3.10;;;;;;;6.84;78.75;98143.52;106841;1264;60329;-36
2024/04/19 06:57:37;;;;;;;4.00;3.50;;;;;;;6.80;79.07;98152.86;106807;1264;60921;-37
2024/04/19 07:00:05;;;;;;;8.80;3.30;;;;;;;6.80;79.31;98157.62;106826;1263;73583;-37
2024/04/19 07:02:52;;;;;;;6.40;3.50;;;;;;;6.87;79.09;98160.35;106817;1267;68026;-36
2024/04/19 07:05:19;;;;;;;4.80;3.10;;;;;;;6.88;79.07;98157.44;106698;1263;72786;-36
2024/04/19 07:07:47;;;;;;;5.40;3.10;;;;;;;6.86;79.19;98167.65;106712;1268;60433;-36
2024/04/19 07:10:14;;;;;;;6.70;3.10;;;;;;;6.88;79.25;98167.05;106724;1263;60330;-37
2024/04/19 07:12:41;;;;;;;5.50;2.90;;;;;;;6.95;79.12;98168.77;106790;1264;72146;-36
2024/04/19 07:15:08;;;;;;;9.70;3.00;;;;;;;6.99;78.17;98175.91;106742;1263;67683;-37
2024/04/19 07:17:35;;;;;;;3.80;3.10;;;;;;;6.99;78.54;98174.69;106709;1264;71798;-37
2024/04/19 07:20:03;;;;;;;3.50;3.10;;;;;;;6.97;77.51;98176.20;106685;1263;60549;-37
2024/04/19 07:22:30;;;;;;;5.10;3.00;;;;;;;6.97;76.88;98178.11;106792;1262;60512;-37
2024/04/19 07:24:57;;;;;;;4.60;3.10;;;;;;;6.99;76.17;98186.70;106711;1267;73901;-37
2024/04/19 07:27:25;;;;;;;3.50;3.00;;;;;;;6.98;76.91;98194.45;106828;1263;68074;-37
2024/04/19 07:30:02;;;;;;;5.20;3.20;;;;;;;6.99;77.25;98199.15;106822;1263;73179;-36
2024/04/19 07:32:30;;;;;;;5.50;2.90;;;;;;;7.05;76.58;98204.63;106818;1263;62141;-37
2024/04/19 07:34:57;;;;;;;4.10;2.80;;;;;;;7.07;75.67;98204.12;106864;1263;60431;-37
2024/04/19 07:37:25;;;;;;;7.10;3.10;;;;;;;7.03;76.03;98210.37;106825;1263;73884;-37
2024/04/19 07:39:52;;;;;;;4.30;2.40;;;;;;;7.00;75.85;98215.19;106826;1268;67905;-37
2024/04/19 07:42:19;;;;;;;3.60;2.60;;;;;;;6.98;74.86;98218.16;106828;1268;72535;-37
2024/04/19 07:44:46;;;;;;;3.90;2.70;;;;;;;7.01;74.90;98225.83;106852;1263;59386;-36
2024/04/19 07:47:13;;;;;;;6.70;2.80;;;;;;;7.01;74.03;98225.60;106817;1263;60461;-37
2024/04/19 07:49:40;;;;;;;6.30;2.80;;;;;;;6.98;74.16;98232.79;106819;1266;73744;-37
2024/04/19 07:52:07;;;;;;;5.30;2.80;;;;;;;6.97;73.90;98234.32;107244;1260;67922;-37
2024/04/19 07:54:34;;;;;;;9.30;2.90;;;;;;;7.06;73.66;98245.21;107194;1257;72560;-37
2024/04/19 07:57:01;;;;;;;5.10;2.20;;;;;;;7.15;72.41;98243.05;107148;1257;60539;-37
2024/04/19 07:59:28;;;;;;;4.50;2.50;;;;;;;7.17;71.70;98246.52;107193;1256;59607;-37
2024/04/19 08:01:55;;;;;;;3.70;2.50;;;;;;;7.17;72.41;98251.15;107223;1258;73800;-37
2024/04/19 08:04:22;;;;;;;9.10;2.50;;;;;;;7.23;72.09;98258.11;107232;1260;67800;-37
2024/04/19 08:06:49;;;;;;;5.90;2.40;;;;;;;7.36;70.75;98258.36;107410;1257;72536;-37
2024/04/19 08:09:16;;;;;;;3.10;2.50;;;;;;;7.50;70.39;98267.09;107260;1258;60120;-37
2024/04/19 08:11:44;;;;;;;3.80;2.70;;;;;;;7.60;69.31;98266.45;107347;1258;60248;-37
2024/04/19 08:14:12;;;;;;;4.00;2.50;;;;;;;7.66;69.14;98265.98;107373;1257;73944;-37
2024/04/19 08:16:39;;;;;;;5.10;2.10;;;;;;;7.71;69.29;98272.52;107472;1258;67820;-37
2024/04/19 08:19:07;;;;;;;5.60;2.60;;;;;;;7.76;68.57;98279.00;107501;1259;72688;-37
2024/04/19 08:21:34;;;;;;;5.90;2.10;;;;;;;7.80;67.91;98275.64;107422;1259;60318;-37
2024/04/19 08:24:02;;;;;;;3.80;2.30;;;;;;;7.78;68.19;98283.80;107409;1258;60426;-37
2024/04/19 08:26:29;;;;;;;4.10;2.30;;;;;;;7.79;69.21;98286.05;107476;1260;72622;-37
2024/04/19 08:28:56;;;;;;;6.40;2.50;;;;;;;7.81;68.65;98292.93;107252;1260;66928;-37
2024/04/19 08:31:23;;;;;;;3.90;2.20;;;;;;;7.86;68.35;98301.33;107263;1258;72708;-37
2024/04/19 08:33:50;;;;;;;5.90;2.40;;;;;;;7.98;67.61;98303.55;107128;1263;62096;-38
2024/04/19 08:36:17;;;;;;;5.60;2.10;;;;;;;8.09;67.07;98308.77;107368;1260;60447;-38
2024/04/19 08:38:45;;;;;;;7.20;2.10;;;;;;;8.13;67.58;98311.13;107271;1258;73849;-38
2024/04/19 08:41:12;;;;;;;3.20;2.40;;;;;;;8.11;66.90;98314.20;107343;1258;68029;-38
2024/04/19 08:43:39;;;;;;;3.40;2.10;;;;;;;8.07;67.21;98321.31;107262;1256;72420;-38
2024/04/19 08:46:07;;;;;;;4.80;2.20;;;;;;;8.05;68.07;98323.83;107358;1260;61849;-38
2024/04/19 08:48:36;;;;;;;4.60;2.20;;;;;;;8.07;66.82;98322.86;107217;1257;60190;-38
2024/04/19 08:51:04;;;;;;;2.30;1.80;;;;;;;8.06;66.11;98331.64;107331;1260;73641;-38
2024/04/19 08:53:31;;;;;;;2.90;2.10;;;;;;;8.00;64.97;98335.27;107431;1259;67958;-38
2024/04/19 08:55:58;;;;;;;3.40;2.10;;;;;;;7.78;64.62;98319.17;107421;1258;72889;-37
2024/04/19 08:58:25;;;;;;;2.60;1.90;;;;;;;7.90;64.71;98343.37;107403;1259;59680;-38
2024/04/19 09:00:52;;;;;;;4.40;2.00;;;;;;;7.87;63.82;98345.91;107395;1260;60395;-38
2024/04/19 09:03:19;;;;;;;4.40;2.00;;;;;;;7.88;63.66;98349.23;107395;1259;72334;-38
2024/04/19 09:05:46;;;;;;;3.50;2.60;;;;;;;7.88;63.67;98352.38;107257;1262;67930;-37
2024/04/19 09:08:13;;;;;;;2.10;1.90;;;;;;;7.92;64.65;98358.91;107389;1257;72660;-37
2024/04/19 09:10:40;;;;;;;6.10;2.00;;;;;;;8.05;64.69;98362.23;107229;1258;60763;-37
2024/04/19 09:13:07;;;;;;;3.20;1.70;;;;;;;8.14;64.14;98370.07;107264;1254;60402;-37
2024/04/19 09:15:37;;;;;;;1.90;1.70;;;;;;;8.19;63.61;98366.19;107257;1257;73834;-37
2024/04/19 09:18:05;;;;;;;5.30;2.10;;;;;;;8.21;63.41;98374.56;107253;1260;67949;-37
2024/04/19 09:20:32;;;;;;;1.80;1.70;;;;;;;8.21;62.99;98380.19;107229;1257;72580;-37
2024/04/19 09:22:58;;;;;;;2.50;2.10;;;;;;;8.14;63.09;98388.58;107219;1258;60469;-37
2024/04/19 09:25:25;;;;;;;5.70;2.00;;;;;;;8.04;63.12;98384.20;107215;1261;61155;-37
2024/04/19 09:27:55;;;;;;;3.30;1.90;;;;;;;7.96;64.61;98386.73;107255;1257;73984;-37
2024/04/19 09:30:22;;;;;;;4.00;1.90;;;;;;;7.94;65.18;98392.24;107302;1257;67961;-37
2024/04/19 09:32:50;;;;;;;3.30;2.00;;;;;;;7.98;66.16;98393.46;107203;1257;72638;-37
2024/04/19 09:35:17;;;;;;;5.20;1.80;;;;;;;7.99;65.51;98394.39;107298;1257;60447;-37
2024/04/19 09:37:44;;;;;;;3.60;1.70;;;;;;;7.99;64.44;98392.17;107227;1256;60514;-37
2024/04/19 09:40:11;;;;;;;2.20;1.70;;;;;;;8.10;63.49;98393.23;107234;1258;72767;-38
2024/04/19 09:42:38;;;;;;;2.40;2.00;;;;;;;8.29;63.46;98399.43;107205;1254;67919;-38
2024/04/19 09:45:08;;;;;;;2.50;2.10;;;;;;;8.51;62.73;98404.64;107237;1260;72689;-38
2024/04/19 09:47:34;;;;;;;2.10;1.80;;;;;;;8.69;61.50;98397.28;107320;1258;60338;-38
2024/04/19 09:50:02;;;;;;;2.50;2.00;;;;;;;8.82;60.77;98402.13;107270;1260;60176;-38
2024/04/19 09:52:30;;;;;;;2.10;1.90;;;;;;;8.86;60.26;98405.11;107256;1260;73815;-38
2024/04/19 09:55:10;;;;;;;3.60;1.80;;;;;;;8.97;60.20;98408.00;107489;1260;67699;-38
2024/04/19 09:57:37;;;;;;;;;;;;;;;9.15;59.77;98407.86;107482;1257;72576;-37
2024/04/19 10:00:05;;;;;;;2.30;1.70;;;;;;;9.29;58.99;98413.00;107185;1257;60407;-37
2024/04/19 10:02:38;;;;;;;4.00;1.80;;;;;;;9.25;58.15;98421.45;107152;1257;60389;-37
2024/04/19 10:05:06;;;;;;;3.30;1.70;;;;;;;9.09;59.04;98424.26;107176;1260;73763;-37
2024/04/19 10:07:33;;;;;;;3.70;1.90;;;;;;;8.92;59.87;98434.36;107189;1257;67829;-37
2024/04/19 10:10:02;;;;;;;4.10;2.00;;;;;;;8.74;60.79;98443.96;107597;1253;72703;-37
2024/04/19 10:12:29;;;;;;;3.30;1.90;;;;;;;8.55;60.99;98449.99;107635;1251;60376;-37
2024/04/19 10:14:56;;;;;;;4.30;1.80;;;;;;;8.37;61.34;98455.17;107701;1256;60478;-37
2024/04/19 10:17:23;;;;;;;4.00;1.60;;;;;;;8.23;60.99;98453.88;107676;1256;72880;-37
2024/04/19 10:19:51;;;;;;;2.50;1.70;;;;;;;8.14;60.71;98453.30;107644;1257;68574;-36
2024/04/19 10:22:22;;;;;;;2.20;1.80;;;;;;;8.11;61.05;98459.90;107547;1256;72573;-36
2024/04/19 10:24:59;;;;;;;3.30;1.80;;;;;;;8.14;60.83;98458.38;107732;1251;61143;-36
2024/04/19 10:27:31;;;;;;;2.10;1.50;;;;;;;8.17;60.89;98467.31;107740;1251;60255;-37
2024/04/19 10:29:59;;;;;;;2.70;1.40;;;;;;;8.21;61.25;98470.27;107698;1251;74689;-37
2024/04/19 10:32:26;;;;;;;4.10;1.50;;;;;;;8.26;61.36;98476.45;107640;1251;67866;-38
2024/04/19 10:34:53;;;;;;;4.00;1.50;;;;;;;8.35;58.30;98477.60;107583;1257;72571;-37
2024/04/19 10:37:20;;;;;;;1.80;1.60;;;;;;;8.38;57.39;98484.96;107587;1251;60431;-37
2024/04/19 10:39:47;;;;;;;2.10;1.50;;;;;;;8.34;57.28;98491.09;107601;1251;61228;-37
2024/04/19 10:42:18;;;;;;;2.20;1.60;;;;;;;8.29;56.98;98488.38;107558;1253;74667;-37
2024/04/19 10:44:48;;;;;;;3.60;1.80;;;;;;;8.24;57.59;98494.63;107614;1254;68061;-37
2024/04/19 10:47:16;;;;;;;1.60;1.20;;;;;;;8.19;58.20;98498.49;107590;1254;72713;-37
2024/04/19 10:49:43;;;;;;;2.70;1.60;;;;;;;8.14;57.88;98493.48;107570;1254;61168;-38
2024/04/19 10:52:10;;;;;;;4.80;1.50;;;;;;;8.10;57.14;98492.17;107587;1254;61204;-37
2024/04/19 10:54:38;;;;;;;2.50;1.70;;;;;;;8.13;57.75;98504.18;107645;1253;74548;-38
2024/04/19 10:57:05;;;;;;;2.30;1.80;;;;;;;8.20;57.30;98495.48;107696;1251;67983;-37
2024/04/19 10:59:32;;;;;;;1.70;1.50;;;;;;;8.28;57.52;98501.79;107675;1251;72557;-38
2024/04/19 11:02:01;;;;;;;5.20;1.40;;;;;;;8.39;57.70;98507.44;107653;1251;61128;-38
2024/04/19 11:04:28;;;;;;;1.90;1.60;;;;;;;8.48;57.40;98509.02;107678;1251;61228;-37
2024/04/19 11:06:56;;;;;;;2.60;1.40;;;;;;;8.53;57.89;98516.52;107571;1254;74396;-37
2024/04/19 11:09:25;;;;;;;2.90;1.80;;;;;;;8.58;58.41;98517.66;107527;1254;69494;-37
2024/04/19 11:11:52;;;;;;;1.80;1.50;;;;;;;8.62;57.33;98520.94;107354;1252;72560;-37
2024/04/19 11:14:20;;;;;;;4.50;1.80;;;;;;;8.60;57.10;98518.45;107536;1251;61342;-38
2024/04/19 11:16:48;;;;;;;1.50;1.40;;;;;;;8.57;57.46;98520.95;107580;1254;61226;-38
2024/04/19 11:19:16;;;;;;;2.50;1.80;;;;;;;8.54;57.25;98516.06;107692;1251;74383;-38
2024/04/19 11:21:44;;;;;;;1.90;1.60;;;;;;;8.53;56.04;98517.58;107607;1254;67846;-38
2024/04/19 11:24:11;;;;;;;3.70;1.60;;;;;;;8.56;57.04;98516.94;107630;1251;72666;-38
2024/04/19 11:26:38;;;;;;;2.30;1.70;;;;;;;8.67;57.51;98517.14;107614;1251;61176;-38
2024/04/19 11:29:05;;;;;;;2.00;1.80;;;;;;;8.83;57.33;98517.50;107678;1251;61120;-38
2024/04/19 11:31:34;;;;;;;2.00;1.50;;;;;;;9.03;56.79;98517.73;107763;1251;74675;-38
2024/04/19 11:34:00;;;;;;;2.10;1.60;;;;;;;9.29;56.18;98524.52;107656;1251;67898;-38
2024/04/19 11:36:28;;;;;;;1.80;1.60;;;;;;;9.52;55.32;98519.95;107624;1253;72421;-38
2024/04/19 11:38:55;;;;;;;2.80;1.60;;;;;;;9.74;56.56;98516.44;107415;1254;61385;-38
2024/04/19 11:41:22;;;;;;;2.70;1.50;;;;;;;9.96;55.23;98510.49;107667;1251;61237;-38
2024/04/19 11:43:49;;;;;;;1.70;1.30;;;;;;;10.10;54.16;98510.06;107605;1251;75190;-38